sensor_id;sensor_type;location;lat;lon;timestamp;temperature;humidity
680;DHT22;322;48.846;9.230;2023-06-26T00:01:30;18.30;78.20
680;DHT22;322;48.846;9.230;2023-06-26T00:03:59;18.20;78.20
680;DHT22;322;48.846;9.230;2023-06-26T00:06:28;18.20;79.90
680;DHT22;322;48.846;9.230;2023-06-26T00:08:57;18.10;79.80
680;DHT22;322;48.846;9.230;2023-06-26T00:11:25;18.00;79.10
680;DHT22;322;48.846;9.230;2023-06-26T00:13:54;18.00;79.40
680;DHT22;322;48.846;9.230;2023-06-26T00:16:22;18.00;81.60
680;DHT22;322;48.846;9.230;2023-06-26T00:18:50;18.00;79.30
680;DHT22;322;48.846;9.230;2023-06-26T00:21:18;18.10;78.70
680;DHT22;322;48.846;9.230;2023-06-26T00:23:46;18.00;80.20
680;DHT22;322;48.846;9.230;2023-06-26T00:26:16;18.00;79.60
680;DHT22;322;48.846;9.230;2023-06-26T00:28:44;17.90;81.30
680;DHT22;322;48.846;9.230;2023-06-26T00:31:12;17.90;80.20
680;DHT22;322;48.846;9.230;2023-06-26T00:33:39;18.00;82.80
680;DHT22;322;48.846;9.230;2023-06-26T00:36:07;18.00;83.20
680;DHT22;322;48.846;9.230;2023-06-26T00:38:35;17.90;83.80
680;DHT22;322;48.846;9.230;2023-06-26T00:41:05;17.80;81.30
680;DHT22;322;48.846;9.230;2023-06-26T00:43:40;17.70;80.40
680;DHT22;322;48.846;9.230;2023-06-26T00:46:10;17.70;81.50
680;DHT22;322;48.846;9.230;2023-06-26T00:48:41;17.80;79.80
680;DHT22;322;48.846;9.230;2023-06-26T00:51:14;17.90;79.80
680;DHT22;322;48.846;9.230;2023-06-26T00:53:46;17.90;80.50
680;DHT22;322;48.846;9.230;2023-06-26T00:56:15;17.80;80.10
680;DHT22;322;48.846;9.230;2023-06-26T00:58:46;17.80;86.30
680;DHT22;322;48.846;9.230;2023-06-26T01:01:15;17.70;81.70
680;DHT22;322;48.846;9.230;2023-06-26T01:03:44;17.60;83.50
680;DHT22;322;48.846;9.230;2023-06-26T01:06:14;17.70;82.50
680;DHT22;322;48.846;9.230;2023-06-26T01:08:43;17.60;82.00
680;DHT22;322;48.846;9.230;2023-06-26T01:11:13;17.60;81.70
680;DHT22;322;48.846;9.230;2023-06-26T01:13:42;17.60;82.10
680;DHT22;322;48.846;9.230;2023-06-26T01:16:12;17.40;86.10
680;DHT22;322;48.846;9.230;2023-06-26T01:18:40;17.30;85.10
680;DHT22;322;48.846;9.230;2023-06-26T01:21:09;17.30;84.00
680;DHT22;322;48.846;9.230;2023-06-26T01:23:47;17.30;85.10
680;DHT22;322;48.846;9.230;2023-06-26T01:26:20;17.20;85.60
680;DHT22;322;48.846;9.230;2023-06-26T01:28:52;17.10;86.00
680;DHT22;322;48.846;9.230;2023-06-26T01:31:21;17.20;84.60
680;DHT22;322;48.846;9.230;2023-06-26T01:33:51;17.20;84.50
680;DHT22;322;48.846;9.230;2023-06-26T01:36:19;17.20;87.10
680;DHT22;322;48.846;9.230;2023-06-26T01:38:47;17.10;86.60
680;DHT22;322;48.846;9.230;2023-06-26T01:41:15;17.00;88.90
680;DHT22;322;48.846;9.230;2023-06-26T01:44:07;17.00;90.10
680;DHT22;322;48.846;9.230;2023-06-26T01:46:44;17.00;90.40
680;DHT22;322;48.846;9.230;2023-06-26T01:49:19;16.90;88.60
680;DHT22;322;48.846;9.230;2023-06-26T01:51:53;16.80;88.70
680;DHT22;322;48.846;9.230;2023-06-26T01:54:24;16.70;88.80
680;DHT22;322;48.846;9.230;2023-06-26T01:56:54;16.70;90.60
680;DHT22;322;48.846;9.230;2023-06-26T01:59:25;16.70;91.10
680;DHT22;322;48.846;9.230;2023-06-26T02:01:54;16.80;91.50
680;DHT22;322;48.846;9.230;2023-06-26T02:04:23;16.80;92.10
680;DHT22;322;48.846;9.230;2023-06-26T02:06:51;16.70;90.60
680;DHT22;322;48.846;9.230;2023-06-26T02:09:20;16.60;90.10
680;DHT22;322;48.846;9.230;2023-06-26T02:11:48;16.60;90.10
680;DHT22;322;48.846;9.230;2023-06-26T02:14:16;16.60;90.70
680;DHT22;322;48.846;9.230;2023-06-26T02:16:46;16.60;91.70
680;DHT22;322;48.846;9.230;2023-06-26T02:19:14;16.60;91.90
680;DHT22;322;48.846;9.230;2023-06-26T02:21:48;16.70;90.90
680;DHT22;322;48.846;9.230;2023-06-26T02:24:16;16.60;91.90
680;DHT22;322;48.846;9.230;2023-06-26T02:26:44;16.50;91.90
680;DHT22;322;48.846;9.230;2023-06-26T02:29:13;16.40;93.00
680;DHT22;322;48.846;9.230;2023-06-26T02:31:41;16.50;91.50
680;DHT22;322;48.846;9.230;2023-06-26T02:34:10;16.40;91.90
680;DHT22;322;48.846;9.230;2023-06-26T02:36:38;16.40;93.10
680;DHT22;322;48.846;9.230;2023-06-26T02:39:07;16.40;92.20
680;DHT22;322;48.846;9.230;2023-06-26T02:41:35;16.40;93.40
680;DHT22;322;48.846;9.230;2023-06-26T02:44:03;16.30;94.60
680;DHT22;322;48.846;9.230;2023-06-26T02:46:31;16.30;94.60
680;DHT22;322;48.846;9.230;2023-06-26T02:49:00;16.30;93.40
680;DHT22;322;48.846;9.230;2023-06-26T02:51:29;16.20;93.40
680;DHT22;322;48.846;9.230;2023-06-26T02:53:57;16.20;93.40
680;DHT22;322;48.846;9.230;2023-06-26T02:56:25;16.10;94.00
680;DHT22;322;48.846;9.230;2023-06-26T02:58:56;16.20;95.50
680;DHT22;322;48.846;9.230;2023-06-26T03:01:24;16.20;95.00
680;DHT22;322;48.846;9.230;2023-06-26T03:03:52;16.30;95.50
680;DHT22;322;48.846;9.230;2023-06-26T03:06:20;16.30;94.80
680;DHT22;322;48.846;9.230;2023-06-26T03:08:49;16.20;94.70
680;DHT22;322;48.846;9.230;2023-06-26T03:11:17;16.10;95.20
680;DHT22;322;48.846;9.230;2023-06-26T03:13:45;16.10;94.70
680;DHT22;322;48.846;9.230;2023-06-26T03:16:13;16.10;95.50
680;DHT22;322;48.846;9.230;2023-06-26T03:18:41;16.10;94.70
680;DHT22;322;48.846;9.230;2023-06-26T03:21:09;16.00;94.90
680;DHT22;322;48.846;9.230;2023-06-26T03:23:39;16.00;95.00
680;DHT22;322;48.846;9.230;2023-06-26T03:26:08;16.10;96.00
680;DHT22;322;48.846;9.230;2023-06-26T03:28:36;16.00;94.90
680;DHT22;322;48.846;9.230;2023-06-26T03:31:04;16.00;96.40
680;DHT22;322;48.846;9.230;2023-06-26T03:33:32;16.00;95.20
680;DHT22;322;48.846;9.230;2023-06-26T03:36:00;16.00;95.40
680;DHT22;322;48.846;9.230;2023-06-26T03:38:28;16.00;95.60
680;DHT22;322;48.846;9.230;2023-06-26T03:40:56;16.00;95.70
680;DHT22;322;48.846;9.230;2023-06-26T03:43:26;16.10;95.50
680;DHT22;322;48.846;9.230;2023-06-26T03:45:54;16.00;95.40
680;DHT22;322;48.846;9.230;2023-06-26T03:48:22;16.00;95.50
680;DHT22;322;48.846;9.230;2023-06-26T03:50:50;16.10;95.20
680;DHT22;322;48.846;9.230;2023-06-26T03:53:18;16.20;95.30
680;DHT22;322;48.846;9.230;2023-06-26T03:55:46;16.20;94.90
680;DHT22;322;48.846;9.230;2023-06-26T03:58:14;16.20;94.80
680;DHT22;322;48.846;9.230;2023-06-26T04:00:43;16.20;95.10
680;DHT22;322;48.846;9.230;2023-06-26T04:03:14;16.20;94.70
680;DHT22;322;48.846;9.230;2023-06-26T04:05:42;16.20;94.90
680;DHT22;322;48.846;9.230;2023-06-26T04:08:10;16.30;95.60
680;DHT22;322;48.846;9.230;2023-06-26T04:10:38;16.30;94.70
680;DHT22;322;48.846;9.230;2023-06-26T04:13:06;16.30;94.60
680;DHT22;322;48.846;9.230;2023-06-26T04:15:34;16.40;95.10
680;DHT22;322;48.846;9.230;2023-06-26T04:18:03;16.50;95.20
680;DHT22;322;48.846;9.230;2023-06-26T04:20:31;16.50;94.90
680;DHT22;322;48.846;9.230;2023-06-26T04:23:02;16.50;93.90
680;DHT22;322;48.846;9.230;2023-06-26T04:25:30;16.50;93.80
680;DHT22;322;48.846;9.230;2023-06-26T04:27:57;16.60;93.80
680;DHT22;322;48.846;9.230;2023-06-26T04:30:25;16.60;93.80
680;DHT22;322;48.846;9.230;2023-06-26T04:32:53;16.70;94.00
680;DHT22;322;48.846;9.230;2023-06-26T04:35:27;16.70;94.20
680;DHT22;322;48.846;9.230;2023-06-26T04:37:55;16.80;94.50
680;DHT22;322;48.846;9.230;2023-06-26T04:40:23;16.90;95.00
680;DHT22;322;48.846;9.230;2023-06-26T04:42:51;17.00;94.20
680;DHT22;322;48.846;9.230;2023-06-26T04:45:19;17.10;94.20
680;DHT22;322;48.846;9.230;2023-06-26T04:47:47;17.10;94.70
680;DHT22;322;48.846;9.230;2023-06-26T04:50:15;17.20;94.60
680;DHT22;322;48.846;9.230;2023-06-26T04:52:46;17.30;94.70
680;DHT22;322;48.846;9.230;2023-06-26T04:55:14;17.40;94.40
680;DHT22;322;48.846;9.230;2023-06-26T04:57:42;17.50;94.60
680;DHT22;322;48.846;9.230;2023-06-26T05:00:12;17.50;94.10
680;DHT22;322;48.846;9.230;2023-06-26T05:02:40;17.60;94.40
680;DHT22;322;48.846;9.230;2023-06-26T05:05:08;17.60;94.40
680;DHT22;322;48.846;9.230;2023-06-26T05:07:41;17.70;94.60
680;DHT22;322;48.846;9.230;2023-06-26T05:10:10;17.80;94.60
680;DHT22;322;48.846;9.230;2023-06-26T05:12:38;17.90;94.30
680;DHT22;322;48.846;9.230;2023-06-26T05:15:07;18.00;94.40
680;DHT22;322;48.846;9.230;2023-06-26T05:17:35;18.10;94.70
680;DHT22;322;48.846;9.230;2023-06-26T05:20:03;18.20;94.10
680;DHT22;322;48.846;9.230;2023-06-26T05:22:32;18.20;93.80
680;DHT22;322;48.846;9.230;2023-06-26T05:25:02;18.40;93.80
680;DHT22;322;48.846;9.230;2023-06-26T05:27:33;18.50;93.50
680;DHT22;322;48.846;9.230;2023-06-26T05:30:02;18.60;93.80
680;DHT22;322;48.846;9.230;2023-06-26T05:32:30;18.70;93.30
680;DHT22;322;48.846;9.230;2023-06-26T05:35:02;18.90;92.40
680;DHT22;322;48.846;9.230;2023-06-26T05:37:31;19.20;92.10
680;DHT22;322;48.846;9.230;2023-06-26T05:40:00;19.20;91.90
680;DHT22;322;48.846;9.230;2023-06-26T05:42:32;19.50;91.30
680;DHT22;322;48.846;9.230;2023-06-26T05:45:00;19.70;90.70
680;DHT22;322;48.846;9.230;2023-06-26T05:47:28;19.70;90.30
680;DHT22;322;48.846;9.230;2023-06-26T05:49:57;19.80;90.20
680;DHT22;322;48.846;9.230;2023-06-26T05:52:25;20.00;88.60
680;DHT22;322;48.846;9.230;2023-06-26T05:54:54;20.00;89.00
680;DHT22;322;48.846;9.230;2023-06-26T05:57:26;20.20;88.80
680;DHT22;322;48.846;9.230;2023-06-26T05:59:56;20.30;88.00
680;DHT22;322;48.846;9.230;2023-06-26T06:02:24;20.40;88.90
680;DHT22;322;48.846;9.230;2023-06-26T06:04:52;20.50;88.20
680;DHT22;322;48.846;9.230;2023-06-26T06:07:20;20.50;88.10
680;DHT22;322;48.846;9.230;2023-06-26T06:09:48;20.70;89.20
680;DHT22;322;48.846;9.230;2023-06-26T06:12:16;20.70;88.70
680;DHT22;322;48.846;9.230;2023-06-26T06:14:44;20.90;87.40
680;DHT22;322;48.846;9.230;2023-06-26T06:17:14;21.00;88.80
680;DHT22;322;48.846;9.230;2023-06-26T06:19:42;21.10;86.50
680;DHT22;322;48.846;9.230;2023-06-26T06:22:10;21.30;83.50
680;DHT22;322;48.846;9.230;2023-06-26T06:24:38;21.50;82.40
680;DHT22;322;48.846;9.230;2023-06-26T06:27:06;21.60;81.90
680;DHT22;322;48.846;9.230;2023-06-26T06:29:34;21.70;81.30
680;DHT22;322;48.846;9.230;2023-06-26T06:32:02;21.80;81.10
680;DHT22;322;48.846;9.230;2023-06-26T06:34:32;22.00;79.40
680;DHT22;322;48.846;9.230;2023-06-26T06:37:00;22.10;79.80
680;DHT22;322;48.846;9.230;2023-06-26T06:39:28;22.20;77.50
680;DHT22;322;48.846;9.230;2023-06-26T06:41:56;22.40;78.10
680;DHT22;322;48.846;9.230;2023-06-26T06:44:24;22.40;78.90
680;DHT22;322;48.846;9.230;2023-06-26T06:46:52;22.60;76.80
680;DHT22;322;48.846;9.230;2023-06-26T06:49:20;22.80;75.20
680;DHT22;322;48.846;9.230;2023-06-26T06:51:49;23.00;74.50
680;DHT22;322;48.846;9.230;2023-06-26T06:54:17;23.20;73.60
680;DHT22;322;48.846;9.230;2023-06-26T06:56:46;23.30;74.60
680;DHT22;322;48.846;9.230;2023-06-26T06:59:14;23.40;72.00
680;DHT22;322;48.846;9.230;2023-06-26T07:01:42;23.60;73.30
680;DHT22;322;48.846;9.230;2023-06-26T07:04:10;23.60;72.10
680;DHT22;322;48.846;9.230;2023-06-26T07:06:38;23.70;71.40
680;DHT22;322;48.846;9.230;2023-06-26T07:09:07;23.80;70.50
680;DHT22;322;48.846;9.230;2023-06-26T07:11:35;24.00;68.90
680;DHT22;322;48.846;9.230;2023-06-26T07:14:03;24.10;69.10
680;DHT22;322;48.846;9.230;2023-06-26T07:16:31;24.40;67.10
680;DHT22;322;48.846;9.230;2023-06-26T07:18:59;24.60;65.70
680;DHT22;322;48.846;9.230;2023-06-26T07:21:28;24.80;64.40
680;DHT22;322;48.846;9.230;2023-06-26T07:23:56;24.90;64.40
680;DHT22;322;48.846;9.230;2023-06-26T07:26:25;25.00;63.30
680;DHT22;322;48.846;9.230;2023-06-26T07:29:09;25.10;64.80
680;DHT22;322;48.846;9.230;2023-06-26T07:31:37;25.30;65.30
680;DHT22;322;48.846;9.230;2023-06-26T07:34:06;25.50;65.00
680;DHT22;322;48.846;9.230;2023-06-26T07:36:33;25.60;63.80
680;DHT22;322;48.846;9.230;2023-06-26T07:39:02;25.80;63.30
680;DHT22;322;48.846;9.230;2023-06-26T07:41:31;25.90;61.90
680;DHT22;322;48.846;9.230;2023-06-26T07:43:59;26.10;61.60
680;DHT22;322;48.846;9.230;2023-06-26T07:46:27;26.20;60.80
680;DHT22;322;48.846;9.230;2023-06-26T07:48:55;26.30;61.10
680;DHT22;322;48.846;9.230;2023-06-26T07:51:23;26.40;58.60
680;DHT22;322;48.846;9.230;2023-06-26T07:53:51;26.40;59.90
680;DHT22;322;48.846;9.230;2023-06-26T07:56:19;26.50;58.90
680;DHT22;322;48.846;9.230;2023-06-26T07:58:49;26.60;57.60
680;DHT22;322;48.846;9.230;2023-06-26T08:01:17;26.70;57.10
680;DHT22;322;48.846;9.230;2023-06-26T08:03:45;26.80;56.80
680;DHT22;322;48.846;9.230;2023-06-26T08:06:13;26.80;58.90
680;DHT22;322;48.846;9.230;2023-06-26T08:08:41;26.90;57.90
680;DHT22;322;48.846;9.230;2023-06-26T08:11:09;27.00;57.90
680;DHT22;322;48.846;9.230;2023-06-26T08:13:37;27.20;56.00
680;DHT22;322;48.846;9.230;2023-06-26T08:16:07;27.40;56.10
680;DHT22;322;48.846;9.230;2023-06-26T08:18:35;27.70;54.30
680;DHT22;322;48.846;9.230;2023-06-26T08:21:03;27.80;53.50
680;DHT22;322;48.846;9.230;2023-06-26T08:23:32;27.80;54.50
680;DHT22;322;48.846;9.230;2023-06-26T08:26:00;28.00;56.20
680;DHT22;322;48.846;9.230;2023-06-26T08:28:28;28.20;53.30
680;DHT22;322;48.846;9.230;2023-06-26T08:30:56;28.40;52.90
680;DHT22;322;48.846;9.230;2023-06-26T08:33:25;28.70;52.70
680;DHT22;322;48.846;9.230;2023-06-26T08:35:53;28.80;51.50
680;DHT22;322;48.846;9.230;2023-06-26T08:38:22;28.90;50.60
680;DHT22;322;48.846;9.230;2023-06-26T08:40:50;28.90;50.40
680;DHT22;322;48.846;9.230;2023-06-26T08:43:18;28.80;50.60
680;DHT22;322;48.846;9.230;2023-06-26T08:45:48;28.80;51.30
680;DHT22;322;48.846;9.230;2023-06-26T08:48:18;29.00;49.40
680;DHT22;322;48.846;9.230;2023-06-26T08:50:52;29.00;49.80
680;DHT22;322;48.846;9.230;2023-06-26T08:53:29;29.10;48.90
680;DHT22;322;48.846;9.230;2023-06-26T08:56:02;29.30;48.60
680;DHT22;322;48.846;9.230;2023-06-26T08:58:31;29.20;47.50
680;DHT22;322;48.846;9.230;2023-06-26T09:01:00;29.30;48.30
680;DHT22;322;48.846;9.230;2023-06-26T09:03:29;29.50;48.50
680;DHT22;322;48.846;9.230;2023-06-26T09:05:59;29.80;47.70
680;DHT22;322;48.846;9.230;2023-06-26T09:08:27;29.70;48.00
680;DHT22;322;48.846;9.230;2023-06-26T09:10:56;29.70;47.30
680;DHT22;322;48.846;9.230;2023-06-26T09:13:24;29.80;47.70
680;DHT22;322;48.846;9.230;2023-06-26T09:15:56;30.00;47.70
680;DHT22;322;48.846;9.230;2023-06-26T09:18:24;30.10;47.40
680;DHT22;322;48.846;9.230;2023-06-26T09:20:53;30.10;46.80
680;DHT22;322;48.846;9.230;2023-06-26T09:23:23;30.20;46.70
680;DHT22;322;48.846;9.230;2023-06-26T09:25:52;30.20;46.60
680;DHT22;322;48.846;9.230;2023-06-26T09:28:20;30.40;46.90
680;DHT22;322;48.846;9.230;2023-06-26T09:30:48;30.30;46.10
680;DHT22;322;48.846;9.230;2023-06-26T09:33:19;30.40;46.40
680;DHT22;322;48.846;9.230;2023-06-26T09:35:47;30.60;45.40
680;DHT22;322;48.846;9.230;2023-06-26T09:38:15;30.90;45.40
680;DHT22;322;48.846;9.230;2023-06-26T09:40:46;31.10;45.50
680;DHT22;322;48.846;9.230;2023-06-26T09:43:14;31.30;44.50
680;DHT22;322;48.846;9.230;2023-06-26T09:45:42;31.40;43.10
680;DHT22;322;48.846;9.230;2023-06-26T09:48:10;31.30;42.80
680;DHT22;322;48.846;9.230;2023-06-26T09:50:41;31.40;43.60
680;DHT22;322;48.846;9.230;2023-06-26T09:53:20;31.50;42.60
680;DHT22;322;48.846;9.230;2023-06-26T09:55:49;31.90;42.40
680;DHT22;322;48.846;9.230;2023-06-26T09:58:18;32.20;41.80
680;DHT22;322;48.846;9.230;2023-06-26T10:00:46;32.40;41.80
680;DHT22;322;48.846;9.230;2023-06-26T10:03:14;32.20;41.50
680;DHT22;322;48.846;9.230;2023-06-26T10:05:42;32.30;41.70
680;DHT22;322;48.846;9.230;2023-06-26T10:08:11;32.60;41.40
680;DHT22;322;48.846;9.230;2023-06-26T10:10:42;32.70;41.10
680;DHT22;322;48.846;9.230;2023-06-26T10:13:16;33.00;41.50
680;DHT22;322;48.846;9.230;2023-06-26T10:15:48;33.10;41.00
680;DHT22;322;48.846;9.230;2023-06-26T10:18:18;32.90;41.60
680;DHT22;322;48.846;9.230;2023-06-26T10:20:50;33.20;41.60
680;DHT22;322;48.846;9.230;2023-06-26T10:23:23;33.50;40.90
680;DHT22;322;48.846;9.230;2023-06-26T10:25:54;33.50;40.40
680;DHT22;322;48.846;9.230;2023-06-26T10:28:26;33.50;40.90
680;DHT22;322;48.846;9.230;2023-06-26T10:30:57;33.60;41.90
680;DHT22;322;48.846;9.230;2023-06-26T10:33:26;33.40;41.40
680;DHT22;322;48.846;9.230;2023-06-26T10:36:13;33.10;41.70
680;DHT22;322;48.846;9.230;2023-06-26T10:38:51;33.10;42.10
680;DHT22;322;48.846;9.230;2023-06-26T10:41:21;32.90;42.20
680;DHT22;322;48.846;9.230;2023-06-26T10:44:06;32.90;42.10
680;DHT22;322;48.846;9.230;2023-06-26T10:46:48;32.70;41.90
680;DHT22;322;48.846;9.230;2023-06-26T10:49:17;32.30;42.40
680;DHT22;322;48.846;9.230;2023-06-26T10:51:49;32.10;43.20
680;DHT22;322;48.846;9.230;2023-06-26T10:54:18;32.20;43.50
680;DHT22;322;48.846;9.230;2023-06-26T10:56:47;32.20;42.20
680;DHT22;322;48.846;9.230;2023-06-26T10:59:19;32.20;42.90
680;DHT22;322;48.846;9.230;2023-06-26T11:01:54;32.10;42.50
680;DHT22;322;48.846;9.230;2023-06-26T11:04:40;31.80;42.10
680;DHT22;322;48.846;9.230;2023-06-26T11:07:16;31.60;43.50
680;DHT22;322;48.846;9.230;2023-06-26T11:09:55;31.80;42.80
680;DHT22;322;48.846;9.230;2023-06-26T11:12:37;31.80;42.40
680;DHT22;322;48.846;9.230;2023-06-26T11:15:11;31.20;43.80
680;DHT22;322;48.846;9.230;2023-06-26T11:17:40;30.50;46.30
680;DHT22;322;48.846;9.230;2023-06-26T11:20:10;30.40;47.20
680;DHT22;322;48.846;9.230;2023-06-26T11:22:40;30.30;47.90
680;DHT22;322;48.846;9.230;2023-06-26T11:25:10;30.70;47.40
680;DHT22;322;48.846;9.230;2023-06-26T11:27:38;30.60;47.30
680;DHT22;322;48.846;9.230;2023-06-26T11:30:08;30.10;48.30
680;DHT22;322;48.846;9.230;2023-06-26T11:32:39;30.00;49.30
680;DHT22;322;48.846;9.230;2023-06-26T11:35:08;30.50;47.80
680;DHT22;322;48.846;9.230;2023-06-26T11:37:36;31.00;47.00
680;DHT22;322;48.846;9.230;2023-06-26T11:40:17;31.30;46.30
680;DHT22;322;48.846;9.230;2023-06-26T11:42:45;31.40;47.80
680;DHT22;322;48.846;9.230;2023-06-26T11:45:14;31.90;46.40
680;DHT22;322;48.846;9.230;2023-06-26T11:47:43;31.90;46.10
680;DHT22;322;48.846;9.230;2023-06-26T11:50:15;32.00;46.00
680;DHT22;322;48.846;9.230;2023-06-26T11:52:44;32.20;45.80
680;DHT22;322;48.846;9.230;2023-06-26T11:55:13;32.50;46.20
680;DHT22;322;48.846;9.230;2023-06-26T11:57:41;32.70;45.10
680;DHT22;322;48.846;9.230;2023-06-26T12:00:13;32.50;45.40
680;DHT22;322;48.846;9.230;2023-06-26T12:02:43;32.40;46.10
680;DHT22;322;48.846;9.230;2023-06-26T12:05:12;32.10;45.70
680;DHT22;322;48.846;9.230;2023-06-26T12:07:41;32.00;45.80
680;DHT22;322;48.846;9.230;2023-06-26T12:10:10;32.20;45.90
680;DHT22;322;48.846;9.230;2023-06-26T12:12:39;31.70;46.50
680;DHT22;322;48.846;9.230;2023-06-26T12:15:10;31.30;47.80
680;DHT22;322;48.846;9.230;2023-06-26T12:17:38;31.60;48.10
680;DHT22;322;48.846;9.230;2023-06-26T12:20:19;31.90;46.60
680;DHT22;322;48.846;9.230;2023-06-26T12:22:48;31.30;47.00
680;DHT22;322;48.846;9.230;2023-06-26T12:25:22;31.20;48.60
680;DHT22;322;48.846;9.230;2023-06-26T12:27:50;31.50;48.10
680;DHT22;322;48.846;9.230;2023-06-26T12:30:18;31.70;47.40
680;DHT22;322;48.846;9.230;2023-06-26T12:32:46;31.70;46.90
680;DHT22;322;48.846;9.230;2023-06-26T12:35:15;31.70;46.90
680;DHT22;322;48.846;9.230;2023-06-26T12:37:45;31.50;46.60
680;DHT22;322;48.846;9.230;2023-06-26T12:40:17;31.60;46.50
680;DHT22;322;48.846;9.230;2023-06-26T12:42:45;32.00;47.00
680;DHT22;322;48.846;9.230;2023-06-26T12:45:14;32.00;46.40
680;DHT22;322;48.846;9.230;2023-06-26T12:48:07;32.20;45.90
680;DHT22;322;48.846;9.230;2023-06-26T12:50:38;32.10;47.00
680;DHT22;322;48.846;9.230;2023-06-26T12:53:08;32.30;46.00
680;DHT22;322;48.846;9.230;2023-06-26T12:55:36;32.70;46.30
680;DHT22;322;48.846;9.230;2023-06-26T12:58:04;32.90;45.10
680;DHT22;322;48.846;9.230;2023-06-26T13:00:35;32.50;44.60
680;DHT22;322;48.846;9.230;2023-06-26T13:03:03;32.50;45.10
680;DHT22;322;48.846;9.230;2023-06-26T13:05:35;32.30;45.20
680;DHT22;322;48.846;9.230;2023-06-26T13:08:04;32.10;45.30
680;DHT22;322;48.846;9.230;2023-06-26T13:10:33;32.40;45.00
680;DHT22;322;48.846;9.230;2023-06-26T13:13:02;32.40;44.70
680;DHT22;322;48.846;9.230;2023-06-26T13:15:30;32.60;45.10
680;DHT22;322;48.846;9.230;2023-06-26T13:17:59;32.50;44.40
680;DHT22;322;48.846;9.230;2023-06-26T13:20:27;32.30;43.80
680;DHT22;322;48.846;9.230;2023-06-26T13:22:55;32.10;43.30
680;DHT22;322;48.846;9.230;2023-06-26T13:25:24;32.50;43.80
680;DHT22;322;48.846;9.230;2023-06-26T13:27:53;32.30;43.10
680;DHT22;322;48.846;9.230;2023-06-26T13:30:21;32.40;43.80
680;DHT22;322;48.846;9.230;2023-06-26T13:32:50;32.30;43.10
680;DHT22;322;48.846;9.230;2023-06-26T13:35:18;32.50;43.50
680;DHT22;322;48.846;9.230;2023-06-26T13:37:46;32.40;43.20
680;DHT22;322;48.846;9.230;2023-06-26T13:40:14;32.70;42.10
680;DHT22;322;48.846;9.230;2023-06-26T13:42:42;33.20;40.90
680;DHT22;322;48.846;9.230;2023-06-26T13:45:12;33.70;39.30
680;DHT22;322;48.846;9.230;2023-06-26T13:47:56;34.00;38.60
680;DHT22;322;48.846;9.230;2023-06-26T13:50:24;33.30;38.70
680;DHT22;322;48.846;9.230;2023-06-26T13:53:04;32.90;39.50
680;DHT22;322;48.846;9.230;2023-06-26T13:55:33;33.30;39.60
680;DHT22;322;48.846;9.230;2023-06-26T13:58:01;33.60;38.20
680;DHT22;322;48.846;9.230;2023-06-26T14:00:33;32.90;38.80
680;DHT22;322;48.846;9.230;2023-06-26T14:03:02;32.80;39.20
680;DHT22;322;48.846;9.230;2023-06-26T14:05:30;33.20;39.00
680;DHT22;322;48.846;9.230;2023-06-26T14:08:03;33.50;37.70
680;DHT22;322;48.846;9.230;2023-06-26T14:10:32;33.20;38.00
680;DHT22;322;48.846;9.230;2023-06-26T14:13:00;33.00;38.10
680;DHT22;322;48.846;9.230;2023-06-26T14:15:32;33.30;38.80
680;DHT22;322;48.846;9.230;2023-06-26T14:18:00;32.80;38.50
680;DHT22;322;48.846;9.230;2023-06-26T14:20:29;32.80;38.90
680;DHT22;322;48.846;9.230;2023-06-26T14:22:59;32.80;38.30
680;DHT22;322;48.846;9.230;2023-06-26T14:25:27;33.30;38.00
680;DHT22;322;48.846;9.230;2023-06-26T14:27:56;33.70;36.60
680;DHT22;322;48.846;9.230;2023-06-26T14:30:24;33.10;36.30
680;DHT22;322;48.846;9.230;2023-06-26T14:32:54;32.20;38.10
680;DHT22;322;48.846;9.230;2023-06-26T14:35:22;32.30;38.60
680;DHT22;322;48.846;9.230;2023-06-26T14:37:50;32.00;38.80
680;DHT22;322;48.846;9.230;2023-06-26T14:40:19;31.80;39.40
680;DHT22;322;48.846;9.230;2023-06-26T14:42:48;31.90;38.90
680;DHT22;322;48.846;9.230;2023-06-26T14:45:16;32.10;39.20
680;DHT22;322;48.846;9.230;2023-06-26T14:47:45;32.60;38.50
680;DHT22;322;48.846;9.230;2023-06-26T14:50:14;32.70;37.50
680;DHT22;322;48.846;9.230;2023-06-26T14:52:42;32.40;38.40
680;DHT22;322;48.846;9.230;2023-06-26T14:55:10;32.10;39.10
680;DHT22;322;48.846;9.230;2023-06-26T14:57:38;31.90;39.20
680;DHT22;322;48.846;9.230;2023-06-26T15:00:07;31.90;39.00
680;DHT22;322;48.846;9.230;2023-06-26T15:02:36;31.70;40.00
680;DHT22;322;48.846;9.230;2023-06-26T15:05:04;31.70;39.40
680;DHT22;322;48.846;9.230;2023-06-26T15:07:34;31.20;40.00
680;DHT22;322;48.846;9.230;2023-06-26T15:10:02;31.00;40.40
680;DHT22;322;48.846;9.230;2023-06-26T15:12:31;30.80;41.60
680;DHT22;322;48.846;9.230;2023-06-26T15:14:59;31.10;40.70
680;DHT22;322;48.846;9.230;2023-06-26T15:17:27;31.50;39.90
680;DHT22;322;48.846;9.230;2023-06-26T15:19:55;32.10;38.90
680;DHT22;322;48.846;9.230;2023-06-26T15:22:26;31.70;38.30
680;DHT22;322;48.846;9.230;2023-06-26T15:24:55;30.90;39.90
680;DHT22;322;48.846;9.230;2023-06-26T15:27:23;30.70;41.50
680;DHT22;322;48.846;9.230;2023-06-26T15:29:51;30.50;41.10
680;DHT22;322;48.846;9.230;2023-06-26T15:32:19;30.20;41.50
680;DHT22;322;48.846;9.230;2023-06-26T15:34:47;29.80;42.20
680;DHT22;322;48.846;9.230;2023-06-26T15:37:15;29.80;42.20
680;DHT22;322;48.846;9.230;2023-06-26T15:39:43;29.60;42.40
680;DHT22;322;48.846;9.230;2023-06-26T15:42:13;29.70;42.80
680;DHT22;322;48.846;9.230;2023-06-26T15:44:41;29.90;42.30
680;DHT22;322;48.846;9.230;2023-06-26T15:47:09;29.90;41.80
680;DHT22;322;48.846;9.230;2023-06-26T15:49:37;29.70;42.40
680;DHT22;322;48.846;9.230;2023-06-26T15:52:05;29.70;42.80
680;DHT22;322;48.846;9.230;2023-06-26T15:54:33;29.70;42.50
680;DHT22;322;48.846;9.230;2023-06-26T15:57:02;29.50;43.30
680;DHT22;322;48.846;9.230;2023-06-26T15:59:31;29.10;43.70
680;DHT22;322;48.846;9.230;2023-06-26T16:01:59;28.90;43.90
680;DHT22;322;48.846;9.230;2023-06-26T16:04:28;28.70;44.60
680;DHT22;322;48.846;9.230;2023-06-26T16:06:58;28.70;44.70
680;DHT22;322;48.846;9.230;2023-06-26T16:09:26;28.40;44.90
680;DHT22;322;48.846;9.230;2023-06-26T16:11:55;28.20;44.90
680;DHT22;322;48.846;9.230;2023-06-26T16:14:23;28.20;44.90
680;DHT22;322;48.846;9.230;2023-06-26T16:16:53;28.00;45.50
680;DHT22;322;48.846;9.230;2023-06-26T16:19:21;27.90;45.70
680;DHT22;322;48.846;9.230;2023-06-26T16:21:49;27.90;45.10
680;DHT22;322;48.846;9.230;2023-06-26T16:24:17;27.90;45.10
680;DHT22;322;48.846;9.230;2023-06-26T16:26:45;28.10;44.40
680;DHT22;322;48.846;9.230;2023-06-26T16:29:13;28.20;44.50
680;DHT22;322;48.846;9.230;2023-06-26T16:31:41;28.10;43.80
680;DHT22;322;48.846;9.230;2023-06-26T16:34:10;28.20;43.40
680;DHT22;322;48.846;9.230;2023-06-26T16:36:38;28.40;43.10
680;DHT22;322;48.846;9.230;2023-06-26T16:39:07;28.30;43.00
680;DHT22;322;48.846;9.230;2023-06-26T16:41:35;28.00;42.90
680;DHT22;322;48.846;9.230;2023-06-26T16:44:03;27.70;43.40
680;DHT22;322;48.846;9.230;2023-06-26T16:46:31;27.80;42.60
680;DHT22;322;48.846;9.230;2023-06-26T16:48:59;27.70;42.30